createdAt,value
2023-02-26T00:01:00.005Z,3.00
2023-02-26T00:03:22.218Z,5.47
2023-02-26T00:05:24.130Z,6.05
2023-02-26T00:07:44.590Z,2.80
2023-02-26T00:10:09.348Z,2.28
2023-02-26T00:12:12.576Z,4.70
2023-02-26T00:14:15.691Z,4.97
2023-02-26T00:16:32.062Z,4.10
2023-02-26T00:18:34.262Z,7.35
2023-02-26T00:20:36.613Z,7.97
2023-02-26T00:22:39.989Z,4.15
2023-02-26T00:24:42.421Z,3.08
2023-02-26T00:26:44.305Z,4.55
2023-02-26T00:29:04.768Z,3.58
2023-02-26T00:31:27.595Z,4.03
2023-02-26T00:35:31.961Z,3.08
2023-02-26T00:37:52.013Z,1.73
2023-02-26T00:40:56.879Z,6.15
2023-02-26T00:43:24.340Z,3.88
2023-02-26T00:45:26.570Z,3.28
2023-02-26T00:48:01.134Z,3.45
2023-02-26T00:50:23.274Z,4.32
2023-02-26T00:52:51.706Z,2.58
2023-02-26T00:54:53.668Z,4.30
2023-02-26T00:57:14.458Z,3.65
2023-02-26T00:59:35.062Z,2.20
2023-02-26T01:01:37.027Z,2.88
2023-02-26T01:03:39.235Z,3.00
2023-02-26T01:05:41.477Z,7.57
2023-02-26T01:07:54.659Z,2.63
2023-02-26T01:10:15.370Z,3.42
2023-02-26T01:12:17.632Z,1.60
2023-02-26T01:14:19.698Z,3.60
2023-02-26T01:16:24.794Z,2.45
2023-02-26T01:18:31.029Z,2.17
2023-02-26T01:20:58.040Z,3.95
2023-02-26T01:23:18.650Z,1.77
2023-02-26T01:25:52.132Z,4.70
2023-02-26T01:27:56.396Z,3.40
2023-02-26T01:29:58.596Z,2.88
2023-02-26T01:32:06.782Z,3.00
2023-02-26T01:34:34.307Z,2.38
2023-02-26T01:36:40.710Z,2.30
2023-02-26T01:38:44.440Z,3.20
2023-02-26T01:41:10.533Z,1.73
2023-02-26T01:43:16.422Z,3.67
2023-02-26T01:45:24.644Z,1.77
2023-02-26T01:48:00.361Z,1.50
2023-02-26T01:50:14.087Z,2.45
2023-02-26T01:52:50.220Z,3.88
2023-02-26T01:54:53.459Z,1.33
2023-02-26T01:57:07.594Z,4.25
2023-02-26T01:59:10.323Z,3.80
2023-02-26T02:01:12.233Z,3.50
2023-02-26T02:03:14.302Z,3.65
2023-02-26T02:05:51.679Z,2.38
2023-02-26T02:07:53.760Z,3.00
2023-02-26T02:09:55.639Z,5.18
2023-02-26T02:11:57.429Z,2.63
2023-02-26T02:14:28.803Z,2.92
2023-02-26T02:16:58.061Z,3.85
2023-02-26T02:19:18.438Z,2.63
2023-02-26T02:21:52.649Z,5.20
2023-02-26T02:24:28.322Z,1.35
2023-02-26T02:26:52.361Z,3.60
2023-02-26T02:28:57.335Z,3.35
2023-02-26T02:31:09.089Z,2.28
2023-02-26T02:33:16.054Z,4.70
2023-02-26T02:35:36.863Z,2.10
2023-02-26T02:37:46.764Z,4.20
2023-02-26T02:40:13.450Z,3.45
2023-02-26T02:42:26.198Z,1.98
2023-02-26T02:44:28.341Z,1.92
2023-02-26T02:46:31.954Z,4.55
2023-02-26T02:48:43.138Z,4.82
2023-02-26T02:50:48.707Z,1.85
2023-02-26T02:53:01.440Z,3.00
2023-02-26T02:55:16.064Z,2.42
2023-02-26T02:57:23.235Z,2.30
2023-02-26T02:59:37.515Z,2.55
2023-02-26T03:01:39.621Z,4.45
2023-02-26T03:03:52.138Z,3.22
2023-02-26T03:05:53.993Z,2.55
2023-02-26T03:07:58.295Z,2.42
2023-02-26T03:10:00.310Z,5.70
2023-02-26T03:12:02.218Z,4.30
2023-02-26T03:14:04.103Z,2.15
2023-02-26T03:16:19.445Z,1.98
2023-02-26T03:18:28.493Z,4.85
2023-02-26T03:20:34.312Z,2.22
2023-02-26T03:22:48.305Z,5.22
2023-02-26T03:24:52.212Z,2.42
2023-02-26T03:26:58.369Z,3.58
2023-02-26T03:29:10.713Z,3.25
2023-02-26T03:31:33.703Z,4.55
2023-02-26T03:34:06.013Z,2.83
2023-02-26T03:36:21.900Z,6.15
2023-02-26T03:38:49.854Z,3.63
2023-02-26T03:41:15.018Z,2.50
2023-02-26T03:43:30.733Z,3.10
2023-02-26T03:45:34.685Z,2.08
2023-02-26T03:47:36.544Z,3.05
2023-02-26T03:50:04.021Z,9.10
2023-02-26T03:52:06.077Z,3.80
2023-02-26T03:54:11.056Z,2.95
2023-02-26T03:56:26.020Z,3.78
2023-02-26T03:58:27.999Z,2.65
2023-02-26T04:00:30.042Z,3.33
2023-02-26T04:02:48.153Z,1.88
2023-02-26T04:04:55.503Z,4.40
2023-02-26T04:06:57.433Z,2.55
2023-02-26T04:08:59.242Z,2.53
2023-02-26T04:11:06.357Z,5.05
2023-02-26T04:13:08.319Z,2.95
2023-02-26T04:15:10.765Z,4.50
2023-02-26T04:17:12.568Z,4.18
2023-02-26T04:19:14.541Z,4.18
2023-02-26T04:21:17.678Z,3.03
2023-02-26T04:23:19.574Z,3.55
2023-02-26T04:25:21.494Z,3.92
2023-02-26T04:27:23.321Z,3.35
2023-02-26T04:29:25.160Z,5.13
2023-02-26T04:31:27.125Z,2.15
2023-02-26T04:33:29.202Z,5.28
2023-02-26T04:35:31.591Z,2.30
2023-02-26T04:37:33.474Z,3.97
2023-02-26T04:39:35.325Z,3.00
2023-02-26T04:41:37.968Z,1.52
2023-02-26T04:45:41.571Z,1.20
2023-02-26T04:47:43.410Z,2.20
2023-02-26T04:49:45.333Z,2.15
2023-02-26T04:51:47.248Z,2.13
2023-02-26T04:53:49.165Z,3.15
2023-02-26T04:55:52.419Z,2.63
2023-02-26T04:57:54.412Z,2.35
2023-02-26T04:59:56.249Z,2.72
2023-02-26T05:01:58.402Z,2.25
2023-02-26T05:04:01.286Z,2.60
2023-02-26T05:06:03.159Z,3.17
2023-02-26T05:08:05.078Z,2.53
2023-02-26T05:10:07.414Z,2.28
2023-02-26T05:12:09.241Z,2.58
2023-02-26T05:14:11.137Z,2.50
2023-02-26T05:16:13.033Z,3.53
2023-02-26T05:18:14.938Z,2.47
2023-02-26T05:20:17.055Z,3.70
2023-02-26T05:22:18.947Z,2.10
2023-02-26T05:24:20.857Z,1.40
2023-02-26T05:26:23.033Z,3.83
2023-02-26T05:28:26.018Z,3.00
2023-02-26T05:30:27.894Z,7.95
2023-02-26T05:32:29.852Z,5.72
2023-02-26T05:34:31.754Z,2.30
2023-02-26T05:36:33.589Z,4.03
2023-02-26T05:38:35.756Z,3.00
2023-02-26T05:40:37.600Z,1.95
2023-02-26T05:42:39.612Z,2.88
2023-02-26T05:44:41.536Z,2.25
2023-02-26T05:46:43.461Z,3.10
2023-02-26T05:48:45.939Z,3.42
2023-02-26T05:52:50.613Z,2.00
2023-02-26T05:54:52.464Z,2.25
2023-02-26T05:56:54.375Z,1.83
2023-02-26T05:58:56.216Z,5.05
2023-02-26T06:00:58.747Z,2.35
2023-02-26T06:05:02.630Z,4.50
2023-02-26T06:07:04.451Z,2.17
2023-02-26T06:09:06.313Z,1.77
2023-02-26T06:11:08.160Z,2.78
2023-02-26T06:13:09.971Z,1.40
2023-02-26T06:15:12.134Z,3.60
2023-02-26T06:17:14.045Z,1.13
2023-02-26T06:19:15.919Z,2.25
2023-02-26T06:21:18.405Z,2.33
2023-02-26T06:23:20.302Z,1.67
2023-02-26T06:25:22.131Z,4.70
2023-02-26T06:27:24.150Z,3.95
2023-02-26T06:29:26.022Z,3.40
2023-02-26T06:31:27.944Z,2.95
2023-02-26T06:33:29.855Z,4.18
2023-02-26T06:35:31.733Z,2.72
2023-02-26T06:37:33.645Z,2.40
2023-02-26T06:39:35.610Z,2.30
2023-02-26T06:41:37.466Z,3.67
2023-02-26T06:43:39.635Z,2.80
2023-02-26T06:45:41.548Z,3.55
2023-02-26T06:47:43.370Z,2.70
2023-02-26T06:49:45.214Z,2.05
2023-02-26T06:51:47.149Z,3.40
2023-02-26T06:53:49.012Z,2.65
2023-02-26T06:55:51.936Z,2.15
2023-02-26T06:57:57.196Z,5.03
2023-02-26T06:59:59.294Z,2.22
2023-02-26T07:02:01.198Z,2.35
2023-02-26T07:04:03.112Z,4.10
2023-02-26T07:06:26.054Z,2.85
2023-02-26T07:08:29.501Z,1.70
2023-02-26T07:10:36.410Z,3.40
2023-02-26T07:12:38.408Z,2.90
2023-02-26T07:14:40.446Z,3.92
2023-02-26T07:16:42.357Z,1.35
2023-02-26T07:18:44.258Z,1.30
2023-02-26T07:20:46.201Z,1.80
2023-02-26T07:22:48.153Z,3.25
2023-02-26T07:24:50.320Z,1.73
2023-02-26T07:26:52.193Z,3.88
2023-02-26T07:28:54.136Z,3.20
2023-02-26T07:30:56.442Z,3.35
2023-02-26T07:32:58.434Z,4.38
2023-02-26T07:35:00.378Z,3.25
2023-02-26T07:37:02.308Z,2.20
2023-02-26T07:39:04.160Z,2.72
2023-02-26T07:41:05.996Z,2.90
2023-02-26T07:43:07.859Z,3.63
2023-02-26T07:45:10.208Z,2.80
2023-02-26T07:47:12.148Z,3.28
2023-02-26T07:49:13.955Z,4.13
2023-02-26T07:51:15.789Z,2.35
2023-02-26T07:53:17.729Z,3.50
2023-02-26T07:55:20.156Z,4.85
2023-02-26T07:57:21.983Z,5.47
2023-02-26T07:59:23.862Z,3.05
2023-02-26T08:01:25.750Z,2.17
2023-02-26T08:03:27.615Z,5.50
2023-02-26T08:05:30.232Z,5.10
2023-02-26T08:09:33.958Z,2.42
2023-02-26T08:11:39.778Z,6.05
2023-02-26T08:13:41.638Z,6.30
2023-02-26T08:15:44.198Z,3.92
2023-02-26T08:19:47.869Z,11.75
2023-02-26T08:21:50.815Z,5.07
2023-02-26T08:23:53.135Z,4.80
2023-02-26T08:26:02.394Z,3.40
2023-02-26T08:28:04.350Z,6.45
2023-02-26T08:30:07.679Z,7.93
2023-02-26T08:32:09.710Z,11.23
2023-02-26T08:34:11.758Z,16.30
2023-02-26T08:36:14.758Z,9.25
2023-02-26T08:38:16.660Z,9.68
2023-02-26T08:40:18.741Z,8.52
2023-02-26T08:42:20.737Z,7.07
2023-02-26T08:44:22.583Z,9.90
2023-02-26T08:46:24.812Z,8.43
2023-02-26T08:48:27.003Z,5.13
2023-02-26T08:50:28.974Z,6.60
2023-02-26T08:52:31.013Z,7.30
2023-02-26T08:54:33.768Z,6.95
2023-02-26T08:56:35.612Z,10.93
2023-02-26T08:58:37.433Z,10.97
2023-02-26T09:00:39.307Z,7.97
2023-02-26T09:02:41.452Z,10.30
2023-02-26T09:04:43.305Z,7.97
2023-02-26T09:06:45.302Z,8.05
2023-02-26T09:08:47.202Z,6.20
2023-02-26T09:10:49.151Z,6.13
2023-02-26T09:12:51.045Z,8.80
2023-02-26T09:14:52.926Z,10.25
2023-02-26T09:16:54.805Z,10.95
2023-02-26T09:18:57.106Z,9.70
2023-02-26T09:20:58.972Z,5.20
2023-02-26T09:23:00.859Z,6.57
2023-02-26T09:25:03.285Z,6.20
2023-02-26T09:27:06.419Z,5.53
2023-02-26T09:29:08.253Z,6.45
2023-02-26T09:31:10.242Z,5.97
2023-02-26T09:33:12.156Z,4.80
2023-02-26T09:35:14.006Z,5.70
2023-02-26T09:37:15.929Z,7.10
2023-02-26T09:39:17.768Z,4.47
2023-02-26T09:41:31.644Z,4.50
2023-02-26T09:43:55.127Z,5.15
2023-02-26T09:45:58.181Z,5.78
2023-02-26T09:48:00.111Z,4.28
2023-02-26T09:50:16.699Z,5.03
2023-02-26T09:52:55.547Z,5.00
2023-02-26T09:55:05.223Z,6.85
2023-02-26T09:57:07.194Z,8.45
2023-02-26T09:59:10.298Z,3.90
2023-02-26T10:01:32.462Z,6.68
2023-02-26T10:04:11.091Z,5.50
2023-02-26T10:06:58.421Z,3.05
2023-02-26T10:09:33.962Z,7.40
2023-02-26T10:11:51.069Z,4.20
2023-02-26T10:14:09.609Z,6.13
2023-02-26T10:16:17.263Z,5.22
2023-02-26T10:18:23.879Z,5.10
2023-02-26T10:21:03.041Z,10.40
2023-02-26T10:23:14.989Z,14.65
2023-02-26T10:25:20.353Z,8.75
2023-02-26T10:27:35.647Z,8.40
2023-02-26T10:30:01.686Z,7.88
2023-02-26T10:32:21.257Z,7.15
2023-02-26T10:34:43.410Z,8.95
2023-02-26T10:37:08.023Z,7.53
2023-02-26T10:39:31.970Z,7.75
2023-02-26T10:41:34.906Z,7.88
2023-02-26T10:43:59.686Z,5.18
2023-02-26T10:46:27.798Z,9.20
2023-02-26T10:48:35.568Z,6.78
2023-02-26T10:50:37.438Z,5.43
2023-02-26T10:52:39.355Z,9.20
2023-02-26T10:54:58.947Z,8.85
2023-02-26T10:57:01.368Z,9.40
2023-02-26T10:59:03.215Z,6.95
2023-02-26T11:01:05.543Z,9.90
2023-02-26T11:03:08.042Z,8.10
2023-02-26T11:05:18.777Z,6.60
2023-02-26T11:07:20.595Z,9.05
2023-02-26T11:09:28.211Z,7.28
2023-02-26T11:12:11.849Z,5.93
2023-02-26T11:14:14.578Z,7.25
2023-02-26T11:18:32.873Z,6.45
2023-02-26T11:20:45.207Z,4.95
2023-02-26T11:22:50.804Z,5.38
2023-02-26T11:24:52.703Z,8.23
2023-02-26T11:26:55.449Z,6.13
2023-02-26T11:28:57.316Z,9.38
2023-02-26T11:31:01.912Z,4.87
2023-02-26T11:33:33.075Z,7.00
2023-02-26T11:35:35.856Z,7.03
2023-02-26T11:37:39.643Z,6.70
2023-02-26T11:39:41.540Z,5.18
2023-02-26T11:41:44.417Z,8.23
2023-02-26T11:43:49.206Z,5.95
2023-02-26T11:46:01.179Z,7.80
2023-02-26T11:48:07.686Z,8.30
2023-02-26T11:50:20.004Z,6.28
2023-02-26T11:52:35.006Z,7.55
2023-02-26T11:54:38.600Z,22.20
2023-02-26T11:56:42.292Z,24.73
2023-02-26T11:58:46.223Z,6.82
2023-02-26T12:00:49.931Z,11.88
2023-02-26T12:02:52.058Z,7.70
2023-02-26T12:04:57.383Z,8.02
2023-02-26T12:06:59.290Z,8.95
2023-02-26T12:09:01.192Z,5.47
2023-02-26T12:11:17.704Z,7.88
2023-02-26T12:13:31.904Z,5.65
2023-02-26T12:15:40.916Z,5.03
2023-02-26T12:17:54.782Z,5.82
2023-02-26T12:20:15.453Z,6.78
2023-02-26T12:22:38.676Z,2.10
2023-02-26T12:26:58.629Z,5.07
2023-02-26T12:29:32.180Z,4.10
2023-02-26T12:32:05.033Z,5.32
2023-02-26T12:34:14.536Z,6.05
2023-02-26T12:36:48.007Z,4.43
2023-02-26T12:38:54.018Z,5.22
2023-02-26T12:41:24.878Z,3.65
2023-02-26T12:43:45.082Z,5.80
2023-02-26T12:46:10.934Z,4.85
2023-02-26T12:48:45.302Z,3.47
2023-02-26T12:51:42.972Z,6.47
2023-02-26T12:53:59.678Z,5.82
2023-02-26T12:56:07.818Z,5.50
2023-02-26T12:58:20.493Z,6.00
2023-02-26T13:00:54.043Z,5.93
2023-02-26T13:03:37.118Z,4.05
2023-02-26T13:05:42.016Z,7.60
2023-02-26T13:08:04.942Z,8.73
2023-02-26T13:10:21.648Z,5.53
2023-02-26T13:12:30.340Z,6.20
2023-02-26T13:14:49.934Z,6.78
2023-02-26T13:16:54.171Z,6.47
2023-02-26T13:19:14.023Z,9.15
2023-02-26T13:21:18.916Z,4.50
2023-02-26T13:23:22.571Z,7.60
2023-02-26T13:25:51.136Z,6.28
2023-02-26T13:27:53.097Z,6.18
2023-02-26T13:30:22.215Z,6.05
2023-02-26T13:32:25.864Z,7.82
2023-02-26T13:34:42.026Z,10.05
2023-02-26T13:36:43.925Z,3.78
2023-02-26T13:38:57.970Z,5.32
2023-02-26T13:41:09.245Z,9.95
2023-02-26T13:43:23.934Z,7.85
2023-02-26T13:45:41.051Z,7.15
2023-02-26T13:48:24.078Z,7.78
2023-02-26T13:50:46.327Z,8.85
2023-02-26T13:52:53.986Z,6.50
2023-02-26T13:54:56.120Z,6.45
2023-02-26T13:57:03.830Z,8.23
2023-02-26T13:59:17.250Z,5.45
2023-02-26T14:01:34.415Z,5.82
2023-02-26T14:03:52.394Z,9.23
2023-02-26T14:05:59.974Z,5.78
2023-02-26T14:08:10.523Z,4.40
2023-02-26T14:10:18.910Z,4.20
2023-02-26T14:12:39.387Z,3.75
2023-02-26T14:14:42.789Z,9.73
2023-02-26T14:16:49.212Z,7.00
2023-02-26T14:18:52.188Z,7.70
2023-02-26T14:20:54.319Z,8.15
2023-02-26T14:23:12.831Z,7.05
2023-02-26T14:25:28.093Z,3.70
2023-02-26T14:27:32.914Z,7.80
2023-02-26T14:30:25.809Z,5.05
2023-02-26T14:32:49.619Z,5.07
2023-02-26T14:34:53.274Z,5.35
2023-02-26T14:36:59.724Z,3.90
2023-02-26T14:39:05.024Z,3.30
2023-02-26T14:41:10.628Z,7.97
2023-02-26T14:43:19.638Z,5.90
2023-02-26T14:45:31.604Z,5.28
2023-02-26T14:47:33.445Z,6.47
2023-02-26T14:49:41.144Z,7.25
2023-02-26T14:51:46.869Z,4.70
2023-02-26T14:54:10.948Z,4.43
2023-02-26T14:56:21.748Z,6.63
2023-02-26T14:58:37.143Z,3.05
2023-02-26T15:00:44.498Z,3.72
2023-02-26T15:02:52.077Z,5.25
2023-02-26T15:05:11.266Z,6.47
2023-02-26T15:07:38.694Z,4.05
2023-02-26T15:09:57.338Z,5.15
2023-02-26T15:12:46.971Z,6.05
2023-02-26T15:14:59.792Z,6.55
2023-02-26T15:17:25.808Z,6.25
2023-02-26T15:19:46.464Z,5.65
2023-02-26T15:21:59.933Z,8.57
2023-02-26T15:24:01.791Z,5.93
2023-02-26T15:26:04.108Z,6.07
2023-02-26T15:28:07.527Z,5.28
2023-02-26T15:30:15.759Z,5.65
2023-02-26T15:32:29.255Z,3.92
2023-02-26T15:34:32.138Z,2.80
2023-02-26T15:36:34.191Z,3.33
2023-02-26T15:38:49.549Z,3.35
2023-02-26T15:40:52.802Z,6.45
2023-02-26T15:42:55.555Z,2.70
2023-02-26T15:47:02.905Z,3.05
2023-02-26T15:49:30.038Z,4.68
2023-02-26T15:51:31.955Z,3.67
2023-02-26T15:53:43.802Z,4.57
2023-02-26T15:55:53.129Z,4.22
2023-02-26T15:57:55.017Z,5.47
2023-02-26T16:00:10.580Z,6.25
2023-02-26T16:02:31.725Z,4.18
2023-02-26T16:04:35.490Z,3.17
2023-02-26T16:06:39.924Z,4.03
2023-02-26T16:08:41.890Z,3.85
2023-02-26T16:10:44.004Z,5.30
2023-02-26T16:12:49.307Z,4.97
2023-02-26T16:14:57.287Z,3.63
2023-02-26T16:16:59.136Z,6.57
2023-02-26T16:19:00.978Z,7.63
2023-02-26T16:21:04.441Z,4.68
2023-02-26T16:23:17.203Z,4.47
2023-02-26T16:25:29.929Z,4.45
2023-02-26T16:27:31.924Z,5.07
2023-02-26T16:29:34.318Z,10.48
2023-02-26T16:31:38.000Z,5.43
2023-02-26T16:33:52.655Z,2.90
2023-02-26T16:36:05.988Z,3.53
2023-02-26T16:38:21.987Z,5.80
2023-02-26T16:40:45.015Z,3.47
2023-02-26T16:43:00.384Z,5.03
2023-02-26T16:45:20.150Z,9.73
2023-02-26T16:47:22.360Z,4.78
2023-02-26T16:49:32.592Z,9.90
2023-02-26T16:51:49.703Z,11.50
2023-02-26T16:53:59.738Z,17.20
2023-02-26T16:56:01.596Z,6.05
2023-02-26T16:58:14.726Z,5.70
2023-02-26T17:00:31.004Z,6.43
2023-02-26T17:02:34.022Z,6.63
2023-02-26T17:04:59.669Z,5.85
2023-02-26T17:07:24.669Z,9.60
2023-02-26T17:09:51.920Z,7.15
2023-02-26T17:12:38.915Z,3.97
2023-02-26T17:14:44.892Z,7.70
2023-02-26T17:16:50.208Z,8.27
2023-02-26T17:19:12.502Z,4.72
2023-02-26T17:21:34.776Z,4.67
2023-02-26T17:23:56.919Z,8.07
2023-02-26T17:26:19.102Z,5.85
2023-02-26T17:28:42.330Z,6.50
2023-02-26T17:31:04.857Z,5.40
2023-02-26T17:33:27.050Z,9.95
2023-02-26T17:35:49.393Z,14.98
2023-02-26T17:37:52.785Z,20.38
2023-02-26T17:39:54.713Z,17.77
2023-02-26T17:41:56.597Z,14.93
2023-02-26T17:44:05.525Z,13.90
2023-02-26T17:46:25.798Z,12.45
2023-02-26T17:48:46.335Z,10.68
2023-02-26T17:51:09.348Z,15.57
2023-02-26T17:53:40.814Z,14.35
2023-02-26T17:55:54.940Z,11.45
2023-02-26T17:57:57.464Z,15.10
2023-02-26T18:02:23.562Z,15.57
2023-02-26T18:04:25.580Z,21.58
2023-02-26T18:06:27.474Z,22.75
2023-02-26T18:08:33.760Z,21.27
2023-02-26T18:10:36.503Z,19.65
2023-02-26T18:12:38.319Z,21.55
2023-02-26T18:14:40.421Z,17.45
2023-02-26T18:16:45.479Z,14.27
2023-02-26T18:18:47.601Z,14.18
2023-02-26T18:20:49.473Z,18.67
2023-02-26T18:22:58.656Z,17.80
2023-02-26T18:25:00.489Z,16.15
2023-02-26T18:27:02.289Z,16.17
2023-02-26T18:29:05.654Z,17.88
2023-02-26T18:31:09.898Z,14.23
2023-02-26T18:33:12.722Z,14.15
2023-02-26T18:35:23.177Z,15.77
2023-02-26T18:37:26.060Z,16.05
2023-02-26T18:39:32.033Z,15.18
2023-02-26T18:41:54.230Z,12.55
2023-02-26T18:44:16.845Z,14.02
2023-02-26T18:46:41.800Z,12.20
2023-02-26T18:48:44.511Z,13.63
2023-02-26T18:50:46.874Z,14.88
2023-02-26T18:52:48.715Z,10.38
2023-02-26T18:55:12.175Z,13.00
2023-02-26T18:57:34.348Z,9.75
2023-02-26T18:59:56.879Z,7.72
2023-02-26T19:02:02.999Z,8.20
2023-02-26T19:04:04.883Z,6.85
2023-02-26T19:06:08.882Z,6.50
2023-02-26T19:08:15.629Z,8.48
2023-02-26T19:10:17.597Z,6.57
2023-02-26T19:12:20.776Z,9.73
2023-02-26T19:14:43.072Z,7.13
2023-02-26T19:17:05.684Z,5.30
2023-02-26T19:19:27.886Z,6.03
2023-02-26T19:21:30.413Z,5.68
2023-02-26T19:23:32.305Z,6.78
2023-02-26T19:25:34.151Z,8.00
2023-02-26T19:27:56.893Z,4.43
2023-02-26T19:30:20.686Z,3.88
2023-02-26T19:32:42.937Z,5.53
2023-02-26T19:35:06.557Z,7.70
2023-02-26T19:37:28.957Z,4.72
2023-02-26T19:39:51.169Z,6.90
2023-02-26T19:42:11.690Z,6.88
2023-02-26T19:44:13.601Z,10.10
2023-02-26T19:46:15.835Z,7.18
2023-02-26T19:48:21.200Z,4.68
2023-02-26T19:50:25.583Z,8.63
2023-02-26T19:52:31.190Z,5.05
2023-02-26T19:54:53.392Z,10.23
2023-02-26T19:56:55.270Z,9.70
2023-02-26T19:59:15.598Z,6.80
2023-02-26T20:01:36.595Z,7.90
2023-02-26T20:03:38.523Z,7.00
2023-02-26T20:05:40.360Z,4.68
2023-02-26T20:08:02.885Z,8.95
2023-02-26T20:10:26.516Z,5.57
2023-02-26T20:12:48.718Z,9.02
2023-02-26T20:15:11.464Z,4.30
2023-02-26T20:17:34.178Z,4.97
2023-02-26T20:19:56.386Z,4.55
2023-02-26T20:22:20.931Z,7.57
2023-02-26T20:24:43.199Z,4.15
2023-02-26T20:27:07.188Z,8.00
2023-02-26T20:29:20.525Z,6.80
2023-02-26T20:31:22.606Z,5.85
2023-02-26T20:33:25.249Z,7.28
2023-02-26T20:35:47.612Z,6.00
2023-02-26T20:38:10.007Z,5.07
2023-02-26T20:40:32.216Z,8.57
2023-02-26T20:42:54.446Z,12.83
2023-02-26T20:45:16.792Z,8.98
2023-02-26T20:47:39.284Z,5.17
2023-02-26T20:50:01.456Z,9.38
2023-02-26T20:52:24.283Z,7.88
2023-02-26T20:54:46.470Z,4.90
2023-02-26T20:57:08.674Z,6.78
2023-02-26T20:59:30.928Z,10.48
2023-02-26T21:01:53.848Z,9.63
2023-02-26T21:04:16.088Z,10.20
2023-02-26T21:06:38.348Z,6.00
2023-02-26T21:09:01.383Z,6.47
2023-02-26T21:11:23.684Z,4.15
2023-02-26T21:13:46.588Z,6.90
2023-02-26T21:16:09.002Z,6.65
2023-02-26T21:18:31.205Z,5.60
2023-02-26T21:20:53.404Z,6.68
2023-02-26T21:23:15.655Z,7.57
2023-02-26T21:25:39.654Z,5.68
2023-02-26T21:28:02.076Z,8.55
2023-02-26T21:30:24.809Z,7.90
2023-02-26T21:32:46.971Z,6.97
2023-02-26T21:35:11.456Z,10.15
2023-02-26T21:37:33.673Z,10.25
2023-02-26T21:39:55.985Z,9.48
2023-02-26T21:42:18.182Z,12.10
2023-02-26T21:44:40.417Z,9.57
2023-02-26T21:47:02.894Z,11.07
2023-02-26T21:49:26.775Z,8.73
2023-02-26T21:51:48.944Z,12.13
2023-02-26T21:54:11.160Z,12.68
2023-02-26T21:56:33.854Z,11.00
2023-02-26T21:58:56.197Z,9.63
2023-02-26T22:01:18.456Z,8.88
2023-02-26T22:03:40.657Z,9.87
2023-02-26T22:06:03.098Z,11.95
2023-02-26T22:08:25.430Z,12.75
2023-02-26T22:10:47.728Z,15.93
2023-02-26T22:13:09.968Z,14.07
2023-02-26T22:15:32.257Z,12.97
2023-02-26T22:17:54.431Z,12.82
2023-02-26T22:20:16.934Z,11.80
2023-02-26T22:22:39.114Z,12.73
2023-02-26T22:25:01.473Z,14.00
2023-02-26T22:27:23.746Z,12.77
2023-02-26T22:29:45.957Z,13.52
2023-02-26T22:32:08.172Z,16.57
2023-02-26T22:34:33.233Z,14.10
2023-02-26T22:36:55.429Z,12.93
2023-02-26T22:39:17.770Z,16.80
2023-02-26T22:41:39.992Z,11.20
2023-02-26T22:44:02.177Z,17.63
2023-02-26T22:46:25.619Z,13.53
2023-02-26T22:48:32.574Z,13.90
2023-02-26T22:50:34.799Z,11.57
2023-02-26T22:52:36.649Z,15.50
2023-02-26T22:54:39.488Z,13.35
2023-02-26T22:56:41.331Z,17.20
2023-02-26T22:58:43.199Z,20.15
2023-02-26T23:00:48.420Z,13.73
2023-02-26T23:02:50.471Z,15.82
2023-02-26T23:04:52.317Z,16.63
2023-02-26T23:06:58.586Z,14.25
2023-02-26T23:09:00.440Z,18.75
2023-02-26T23:11:02.434Z,17.20
2023-02-26T23:13:10.426Z,22.85
2023-02-26T23:15:12.292Z,20.58
2023-02-26T23:17:14.705Z,23.45
2023-02-26T23:19:19.527Z,21.48
2023-02-26T23:21:21.353Z,29.90
2023-02-26T23:23:23.319Z,26.83
2023-02-26T23:25:29.553Z,23.20
2023-02-26T23:27:31.422Z,23.27
2023-02-26T23:29:33.293Z,19.88
2023-02-26T23:31:36.601Z,21.05
2023-02-26T23:33:38.518Z,20.42
2023-02-26T23:35:40.372Z,21.77
2023-02-26T23:37:44.479Z,19.77
2023-02-26T23:39:48.506Z,18.65
2023-02-26T23:41:50.348Z,21.80
2023-02-26T23:44:12.577Z,20.67
2023-02-26T23:46:34.895Z,21.20
2023-02-26T23:48:58.219Z,16.88
2023-02-26T23:51:20.422Z,21.10
2023-02-26T23:53:42.586Z,18.13
2023-02-26T23:56:05.096Z,18.07
2023-02-26T23:58:27.949Z,16.85
